Ana Sayfa
METAR-TAF:

METAR-TAF

Havaalanları :

Austin, Teksas, Amerika Birleşik Devletleri

Enlem: 30-24-00N, Boylam: 097-34-25W, yükseklik: 189 m

Güncel hava durumu gözlemi

Rapor saat 20:35 UTC de 17 dakika önce yapıldı.
Rüzgar kuzeydoğudan 5 kt
Sıcaklık 23°C
Nem 94%
Basınç 1020 hPa
Görüş mesafesi: 14.5 km
3600 ft yükseklikte az bulutlu
5000 ft yükseklikte parçalı bulutlu
6500 ft yükseklikte parçalı çok bulutlu

METAR: KEDC 262035Z AUTO 05005KT 9SM FEW036 SCT050 BKN065 23/22 A3011 RMK AO2 P0003

Saat: 14:52 (20:52 UTC)


TAF: eksik

4.000'den fazla havaalanı için hava durumu gözlemleri ve tahminleri (METAR ve TAF raporları).

Kullanılabilir istasyonlar harita üzerinde sarı ve kırmızı noktalarla gösterilir.

İstasyonun adını görmek için fareyi noktanın üzerinde gezdirin.

Sonrasında hava gözlem ve tahminlerini görmek için tıklayın.

Haritayı değiştirmek için: yaklaştırmak için siyah artı işaretli yeşil düğmeye ve uzaklaştırmak için de eksi işaretli düğmeye hızla tıklayın; bitişik haritalar için yeşil okları kullanın.


METAR-TAF: